Terminal Aerodrome Forecast
Issued by NWS

Home | Current Version | Previous Version | Graphics & Text | Print | Product List | Glossary On
Versions: 1 2 3 4 5 6 7 8 9 10 11 12 13 14 15 16 17 18 19
000
FTUS43 KGRB 241411 AAA
TAFAUW
TAF AMD
KAUW 241411Z 2414/2512 05014G24KT 2SM -SN BR FEW015 OVC035
      TEMPO 2414/2416 4SM -SN BKN011
     FM241600 04017G25KT 4SM -FZDZSN BKN015 OVC030
     FM241800 01017G26KT 2SM -SN OVC010
     FM250300 36012G22KT 3SM -SN OVC015
     FM250600 35012G22KT 6SM -SN OVC020=

USA.gov is the U.S. government's official web portal to all federal, state and local government web resources and services.